Time;durP1;ratioP1;P1;durP2;ratioP2;P2;SDS_P1;SDS_P2;PMS_P1;PMS_P2;Temp;Humidity;BMP_temperature;BMP_pressure;BME280_temperature;BME280_humidity;BME280_pressure;Samples;Min_cycle;Max_cycle;Signal;HPM_P1;HPM_P2
2023/10/27 00:00:37;;;;;;;5.13;1.00;;;;;;;19.00;98.30;94040.72;5018230;28;20044;-84
2023/10/27 00:03:05;;;;;;;7.07;1.77;;;;;;;19.25;99.67;94039.94;5016775;28;20031;-83
2023/10/27 00:05:31;;;;;;;5.57;1.13;;;;;;;19.45;93.12;94039.13;5023902;28;20033;-83
2023/10/27 00:07:58;;;;;;;5.17;1.30;;;;;;;19.35;93.53;94043.66;5018444;28;20059;-84
2023/10/27 00:10:24;;;;;;;5.27;1.23;;;;;;;19.64;94.10;94041.25;5013952;28;20154;-83
2023/10/27 00:12:51;;;;;;;4.27;0.90;;;;;;;19.66;93.24;94049.81;5028410;28;20392;-83
2023/10/27 00:15:17;;;;;;;7.07;1.43;;;;;;;19.89;90.17;94041.22;5005615;28;20379;-83
2023/10/27 00:17:42;;;;;;;5.03;0.90;;;;;;;19.68;93.68;94056.44;5046849;28;20020;-83
2023/10/27 00:20:17;;;;;;;5.10;1.20;;;;;;;19.97;94.02;94048.66;5016524;28;20115;-82
2023/10/27 00:22:43;;;;;;;5.83;1.33;;;;;;;19.84;92.53;94046.56;5017808;28;20395;-83
2023/10/27 00:25:09;;;;;;;6.83;1.33;;;;;;;20.02;92.63;94029.97;5040154;28;20025;-83
2023/10/27 00:27:34;;;;;;;5.03;1.33;;;;;;;20.15;91.33;94038.47;5018840;28;20017;-83
2023/10/27 00:30:00;;;;;;;3.80;0.83;;;;;;;19.93;90.50;94042.28;5040396;28;20020;-83
2023/10/27 00:32:26;;;;;;;5.97;1.20;;;;;;;19.40;93.03;94039.13;5020205;28;20029;-83
2023/10/27 00:34:52;;;;;;;2.80;0.87;;;;;;;19.24;98.29;94043.66;5021843;28;20028;-83
2023/10/27 00:37:21;;;;;;;6.27;0.80;;;;;;;19.36;97.85;94040.72;5039631;28;20050;-83
2023/10/27 00:39:47;;;;;;;3.23;0.70;;;;;;;19.39;94.52;94048.19;5016834;28;20141;-83
2023/10/27 00:42:12;;;;;;;4.23;0.90;;;;;;;19.30;96.64;94044.47;5030438;28;20024;-83
2023/10/27 00:44:38;;;;;;;4.63;1.27;;;;;;;19.72;92.61;94044.19;5011490;28;20031;-83
2023/10/27 00:47:04;;;;;;;3.33;0.90;;;;;;;19.13;97.27;94049.25;5009755;28;20021;-84
2023/10/27 00:49:30;;;;;;;2.20;0.80;;;;;;;19.56;99.07;94047.91;5026544;28;20736;-83
2023/10/27 00:51:56;;;;;;;3.07;1.03;;;;;;;19.91;94.30;94044.41;5028747;28;20067;-83
2023/10/27 00:54:21;;;;;;;7.73;1.10;;;;;;;19.45;93.02;94043.63;5031148;28;20021;-83
2023/10/27 00:56:49;;;;;;;3.37;0.97;;;;;;;20.02;86.94;94040.66;5012526;28;20094;-83
2023/10/27 00:59:15;;;;;;;4.93;0.90;;;;;;;20.09;93.41;94048.38;5040784;28;20066;-84
2023/10/27 01:01:42;;;;;;;5.23;0.90;;;;;;;19.75;89.15;94045.50;5030245;28;20039;-83
2023/10/27 01:04:08;;;;;;;3.53;0.90;;;;;;;19.87;93.78;94045.22;5018765;28;20474;-84
2023/10/27 01:06:35;;;;;;;4.77;0.97;;;;;;;19.62;97.13;94056.72;5016809;28;20037;-83
2023/10/27 01:09:00;;;;;;;4.90;1.30;;;;;;;18.78;100.00;94058.81;5038870;28;20182;-84
2023/10/27 01:11:26;;;;;;;5.33;0.93;;;;;;;18.29;100.00;94057.28;5029021;28;20484;-83
2023/10/27 01:13:53;;;;;;;5.23;0.90;;;;;;;18.83;100.00;94056.94;5012146;28;20055;-83
2023/10/27 01:16:19;;;;;;;2.77;0.80;;;;;;;18.65;100.00;94046.78;5013204;28;20083;-83
2023/10/27 01:18:44;;;;;;;4.00;1.00;;;;;;;19.05;100.00;94056.72;5046890;28;20040;-84
2023/10/27 01:21:10;;;;;;;4.23;0.83;;;;;;;18.44;100.00;94050.41;5040483;28;20059;-83
2023/10/27 01:23:36;;;;;;;5.47;1.47;;;;;;;18.96;100.00;94047.66;5033359;28;20033;-82
2023/10/27 01:26:03;;;;;;;3.13;0.80;;;;;;;18.71;100.00;94050.22;5010298;28;20033;-83
2023/10/27 01:28:32;;;;;;;4.53;0.97;;;;;;;19.18;100.00;94046.59;5014847;28;20383;-83
2023/10/27 01:30:58;;;;;;;3.07;0.93;;;;;;;19.17;100.00;94045.00;5018609;28;20052;-82
2023/10/27 01:33:24;;;;;;;4.87;1.00;;;;;;;18.73;100.00;94054.25;5041435;28;20017;-83
2023/10/27 01:35:51;;;;;;;4.53;1.27;;;;;;;18.41;100.00;94049.09;5018896;28;20059;-84
2023/10/27 01:38:16;;;;;;;6.67;0.90;;;;;;;18.81;100.00;94036.97;5025683;28;20036;-84
2023/10/27 01:40:42;;;;;;;3.23;1.10;;;;;;;18.60;100.00;94036.91;5023007;28;20037;-84
2023/10/27 01:43:08;;;;;;;5.90;1.37;;;;;;;18.93;100.00;94034.84;5036624;28;20033;-83
2023/10/27 01:45:34;;;;;;;3.20;0.83;;;;;;;18.68;100.00;94032.94;5029523;28;20115;-82
2023/10/27 01:48:00;;;;;;;5.87;1.00;;;;;;;18.70;100.00;94024.66;5019429;28;20103;-83
2023/10/27 01:50:25;;;;;;;2.70;0.73;;;;;;;18.03;100.00;94031.66;5038819;28;20032;-83
2023/10/27 01:52:51;;;;;;;4.63;1.17;;;;;;;17.62;100.00;94029.53;5021401;28;20115;-84
2023/10/27 01:55:17;;;;;;;4.00;1.10;;;;;;;17.37;100.00;94029.38;5037350;28;20036;-83
2023/10/27 01:57:43;;;;;;;5.77;1.60;;;;;;;17.67;100.00;94029.59;5021648;28;20025;-83
2023/10/27 02:00:09;;;;;;;8.17;0.90;;;;;;;18.25;100.00;94026.97;5010103;28;20079;-83
2023/10/27 02:02:55;;;;;;;5.47;1.03;;;;;;;18.54;100.00;94023.84;5028497;28;20077;-83
2023/10/27 02:05:20;;;;;;;2.63;1.00;;;;;;;18.11;100.00;94026.66;5013360;28;20025;-83
2023/10/27 02:07:46;;;;;;;6.80;0.90;;;;;;;18.07;100.00;94032.72;5019826;28;20029;-84
2023/10/27 02:10:12;;;;;;;3.80;1.00;;;;;;;18.10;100.00;94027.69;5015612;28;20372;-83
2023/10/27 02:12:37;;;;;;;4.77;1.10;;;;;;;17.81;100.00;94034.47;5031056;28;20055;-84
2023/10/27 02:15:04;;;;;;;4.87;1.20;;;;;;;18.29;100.00;94027.25;5034032;28;20067;-83
2023/10/27 02:17:30;;;;;;;5.43;0.87;;;;;;;17.99;100.00;94028.72;5013828;28;20659;-83
2023/10/27 02:19:56;;;;;;;5.13;1.30;;;;;;;18.07;100.00;94022.88;5043054;28;20069;-83
2023/10/27 02:22:22;;;;;;;4.43;0.93;;;;;;;18.12;100.00;94022.91;5021882;28;20021;-83
2023/10/27 02:24:47;;;;;;;2.47;0.93;;;;;;;18.94;100.00;94011.69;5014171;28;20022;-84
2023/10/27 02:27:15;;;;;;;2.80;0.90;;;;;;;19.25;99.35;94017.84;5021273;28;20039;-82
2023/10/27 02:29:40;;;;;;;3.43;0.90;;;;;;;19.20;99.73;94007.97;5031104;28;20032;-83
2023/10/27 02:32:06;;;;;;;2.90;0.63;;;;;;;19.38;97.82;94006.59;5018115;28;20390;-83
2023/10/27 02:34:32;;;;;;;5.63;1.07;;;;;;;19.25;98.44;94012.50;5036488;28;20025;-84
2023/10/27 02:37:17;;;;;;;4.83;0.90;;;;;;;19.34;100.00;94013.53;5022152;28;20059;-84
2023/10/27 02:39:42;;;;;;;4.03;0.77;;;;;;;19.01;100.00;94014.88;5016123;28;20021;-84
2023/10/27 02:42:08;;;;;;;3.63;1.03;;;;;;;19.06;100.00;94015.69;5031202;28;20021;-83
2023/10/27 02:44:33;;;;;;;3.43;1.10;;;;;;;19.00;100.00;94015.94;5013219;28;20026;-84
2023/10/27 02:46:59;;;;;;;3.83;1.00;;;;;;;19.07;100.00;94011.94;5029493;28;20029;-83
2023/10/27 02:49:24;;;;;;;5.80;1.13;;;;;;;19.13;100.00;94006.63;5021534;28;20064;-83
2023/10/27 02:51:50;;;;;;;6.33;1.27;;;;;;;19.19;100.00;94002.91;5018314;28;20025;-84
2023/10/27 02:54:15;;;;;;;6.07;1.17;;;;;;;19.17;97.07;94002.38;5036054;28;20569;-83
2023/10/27 02:56:41;;;;;;;5.47;1.20;;;;;;;19.13;100.00;93996.78;5040037;28;20029;-83
2023/10/27 02:59:09;;;;;;;8.20;1.73;;;;;;;18.95;100.00;93998.13;5010697;28;20024;-83
2023/10/27 03:01:34;;;;;;;4.87;1.00;;;;;;;19.20;100.00;93996.50;5024405;28;20048;-84
2023/10/27 03:04:01;;;;;;;5.97;1.40;;;;;;;19.74;92.41;93979.91;5014001;28;20478;-83
2023/10/27 03:06:27;;;;;;;5.33;1.03;;;;;;;19.99;91.35;93979.84;5012366;28;20026;-83
2023/10/27 03:08:53;;;;;;;3.20;0.80;;;;;;;19.60;97.97;93989.53;5015207;28;20041;-84
2023/10/27 03:11:18;;;;;;;4.03;0.90;;;;;;;19.44;95.17;93986.88;5034511;28;20033;-83
2023/10/27 03:13:44;;;;;;;4.23;0.97;;;;;;;19.89;95.97;93982.53;5030942;28;20106;-83
2023/10/27 03:16:09;;;;;;;5.17;0.80;;;;;;;20.15;90.59;93985.88;5019007;28;20031;-83
2023/10/27 03:18:35;;;;;;;8.50;1.10;;;;;;;19.75;92.18;93990.31;5033449;28;20075;-83
2023/10/27 03:21:03;;;;;;;5.67;0.97;;;;;;;19.31;99.19;93992.75;5025490;28;20455;-83
2023/10/27 03:23:29;;;;;;;6.53;1.47;;;;;;;19.38;98.88;93998.59;5019936;28;20032;-84
2023/10/27 03:25:58;;;;;;;4.03;0.80;;;;;;;19.83;98.34;94002.28;5033672;28;20021;-83
2023/10/27 03:28:24;;;;;;;3.73;1.37;;;;;;;19.39;99.40;94000.22;5007098;28;20034;-83
2023/10/27 03:30:53;;;;;;;3.43;1.00;;;;;;;19.17;97.98;94005.03;5055382;28;20120;-83
2023/10/27 03:33:18;;;;;;;3.57;1.00;;;;;;;19.76;94.72;93991.13;5021597;28;20115;-83
2023/10/27 03:35:46;;;;;;;1.67;0.60;;;;;;;19.97;94.52;93987.31;5014157;28;20120;-83
2023/10/27 03:38:13;;;;;;;5.27;1.07;;;;;;;19.64;94.88;93970.06;5016596;28;20028;-84
2023/10/27 03:40:41;;;;;;;2.37;0.77;;;;;;;19.94;94.32;93963.84;5015219;28;20087;-83
2023/10/27 03:43:09;;;;;;;2.97;0.70;;;;;;;20.16;92.98;93968.81;5013969;28;20475;-84
2023/10/27 03:45:35;;;;;;;7.07;1.27;;;;;;;19.99;90.32;93977.16;5013264;28;20037;-84
2023/10/27 03:48:02;;;;;;;4.07;1.10;;;;;;;19.63;89.79;93973.81;5016895;28;20028;-83
2023/10/27 03:50:27;;;;;;;6.60;1.10;;;;;;;19.12;96.04;93981.06;5037189;28;20063;-83
2023/10/27 03:52:53;;;;;;;4.57;0.70;;;;;;;19.62;98.61;93976.72;5039110;28;20021;-83
2023/10/27 03:55:19;;;;;;;4.47;1.30;;;;;;;19.67;98.61;93974.06;5019989;28;20025;-83
2023/10/27 03:57:44;;;;;;;5.40;1.30;;;;;;;19.44;95.08;93978.88;5028098;28;20029;-83
2023/10/27 04:00:10;;;;;;;5.87;1.43;;;;;;;19.69;93.57;93974.59;5018827;28;20028;-84
2023/10/27 04:02:38;;;;;;;7.03;1.03;;;;;;;19.26;94.91;93982.13;5041285;28;20131;-83
2023/10/27 04:05:04;;;;;;;4.43;1.17;;;;;;;19.49;98.39;93981.53;5018129;28;20441;-83
2023/10/27 04:07:30;;;;;;;3.67;0.80;;;;;;;19.30;96.95;93975.97;5018269;28;20025;-83
2023/10/27 04:10:06;;;;;;;5.67;1.43;;;;;;;19.16;100.00;93974.13;5023464;28;20037;-83
2023/10/27 04:12:31;;;;;;;4.77;1.17;;;;;;;18.81;100.00;93978.38;5013987;28;20394;-84
2023/10/27 04:14:57;;;;;;;5.23;1.13;;;;;;;19.05;100.00;93973.34;5012600;28;20021;-83
2023/10/27 04:17:22;;;;;;;4.53;1.60;;;;;;;19.10;100.00;93976.00;5014942;28;20055;-84
2023/10/27 04:19:50;;;;;;;5.07;1.47;;;;;;;18.51;100.00;93979.94;5028615;28;20585;-83
2023/10/27 04:22:19;;;;;;;5.03;1.70;;;;;;;18.61;100.00;93987.94;5033216;28;20025;-84
2023/10/27 04:24:45;;;;;;;4.97;1.53;;;;;;;18.69;100.00;93985.81;5037099;28;20049;-84
2023/10/27 04:27:10;;;;;;;5.87;1.40;;;;;;;19.18;100.00;93978.13;5012938;28;20061;-84
2023/10/27 04:29:36;;;;;;;4.57;1.23;;;;;;;18.79;100.00;93980.53;5035091;28;20028;-83
2023/10/27 04:32:02;;;;;;;5.60;1.27;;;;;;;18.95;100.00;93973.34;5014423;28;20052;-84
2023/10/27 04:34:28;;;;;;;5.87;1.27;;;;;;;18.72;100.00;93974.66;5048804;28;20455;-83
2023/10/27 04:36:55;;;;;;;9.60;2.03;;;;;;;18.82;100.00;93964.81;5028929;28;20029;-84
2023/10/27 04:39:21;;;;;;;9.87;3.70;;;;;;;18.69;100.00;93972.50;5016311;28;20114;-83
2023/10/27 04:41:46;;;;;;;15.53;6.23;;;;;;;18.54;100.00;93971.44;5021265;28;20059;-83
2023/10/27 04:44:12;;;;;;;24.10;12.00;;;;;;;18.09;100.00;93983.53;5013775;28;20475;-83
2023/10/27 04:46:38;;;;;;;20.70;8.27;;;;;;;18.06;100.00;93981.41;5010084;28;20041;-83
2023/10/27 04:49:04;;;;;;;19.47;8.67;;;;;;;18.16;100.00;93974.53;5014894;28;20029;-83
2023/10/27 04:51:30;;;;;;;11.90;5.20;;;;;;;17.84;100.00;93986.09;5034344;28;20043;-83
2023/10/27 04:53:56;;;;;;;9.37;3.67;;;;;;;18.10;100.00;93979.00;5032520;28;20048;-82
2023/10/27 04:56:22;;;;;;;5.40;1.77;;;;;;;18.11;100.00;93976.09;4950796;23;1728360;-87
2023/10/27 04:58:48;;;;;;;4.50;1.13;;;;;;;18.11;100.00;93975.31;4987451;28;20037;-87
2023/10/27 05:01:14;;;;;;;4.23;1.13;;;;;;;18.06;100.00;93989.38;5005717;28;20034;-86
2023/10/27 05:03:39;;;;;;;5.37;1.10;;;;;;;18.34;100.00;93979.34;5000482;28;20507;-87
2023/10/27 05:06:13;;;;;;;10.47;2.60;;;;;;;18.22;100.00;93992.09;5007544;28;20038;-87
2023/10/27 05:08:41;;;;;;;5.37;1.20;;;;;;;18.30;100.00;93995.03;4972258;28;20046;-87
2023/10/27 05:11:19;;;;;;;5.07;1.33;;;;;;;18.05;100.00;93993.09;5023817;28;20071;-87
2023/10/27 05:13:45;;;;;;;6.00;1.93;;;;;;;18.30;100.00;93987.06;5020279;28;20028;-88
2023/10/27 05:16:13;;;;;;;10.03;2.43;;;;;;;18.47;100.00;93992.16;5014765;28;20022;-87
2023/10/27 05:18:40;;;;;;;8.47;2.60;;;;;;;18.48;100.00;93985.78;4991538;28;20436;-87
2023/10/27 05:21:15;;;;;;;10.20;2.70;;;;;;;18.16;100.00;93979.84;4982407;28;20117;-87
2023/10/27 05:23:41;;;;;;;5.77;2.30;;;;;;;18.48;100.00;93975.13;5011288;28;20109;-87
2023/10/27 05:26:06;;;;;;;3.70;1.87;;;;;;;18.84;100.00;93975.19;5016727;28;20040;-87
2023/10/27 05:28:32;;;;;;;8.47;2.30;;;;;;;18.30;100.00;93984.38;4990081;28;20033;-86
2023/10/27 05:30:57;;;;;;;5.40;1.80;;;;;;;18.74;100.00;93986.63;5011809;28;20036;-87
2023/10/27 05:33:23;;;;;;;6.33;2.63;;;;;;;18.36;100.00;93982.56;4981169;28;20362;-87
2023/10/27 05:35:52;;;;;;;6.50;1.60;;;;;;;18.31;100.00;93985.22;4995673;28;20068;-87
2023/10/27 05:38:48;;;;;;;7.00;2.13;;;;;;;18.66;100.00;93983.69;5003564;28;20105;-87
2023/10/27 05:41:14;;;;;;;5.13;1.83;;;;;;;18.48;100.00;93980.47;4997533;28;20025;-87
2023/10/27 05:43:43;;;;;;;9.03;2.30;;;;;;;18.72;100.00;93975.47;4999428;28;20084;-87
2023/10/27 05:46:09;;;;;;;6.40;2.07;;;;;;;18.46;100.00;93977.25;4998901;28;20029;-88
2023/10/27 05:48:36;;;;;;;5.83;1.83;;;;;;;17.94;100.00;93988.00;5005668;28;20109;-87
2023/10/27 05:51:03;;;;;;;6.43;1.73;;;;;;;17.90;100.00;93985.06;4998369;28;20022;-88
2023/10/27 05:53:36;;;;;;;6.17;1.80;;;;;;;18.40;100.00;93978.28;4981569;28;20029;-87
2023/10/27 05:56:02;;;;;;;4.30;1.40;;;;;;;18.38;100.00;93978.56;4992960;28;20444;-87
2023/10/27 05:58:32;;;;;;;5.83;1.77;;;;;;;18.72;100.00;93980.78;5007825;28;20026;-87
2023/10/27 06:01:01;;;;;;;2.93;1.30;;;;;;;18.26;100.00;93985.19;5002424;28;20548;-87
2023/10/27 06:03:26;;;;;;;7.37;2.30;;;;;;;18.05;100.00;93992.31;5007029;28;20065;-87
2023/10/27 06:05:52;;;;;;;6.03;2.23;;;;;;;17.91;100.00;93994.66;5014833;28;20054;-87
2023/10/27 06:08:19;;;;;;;5.07;2.13;;;;;;;18.53;100.00;93990.31;5004977;28;20481;-88
2023/10/27 06:10:45;;;;;;;6.30;1.93;;;;;;;18.71;100.00;93996.97;5002020;28;20655;-87
2023/10/27 06:13:12;;;;;;;6.43;1.83;;;;;;;18.43;100.00;94001.72;5025491;28;20411;-87
2023/10/27 06:15:53;;;;;;;5.03;2.03;;;;;;;19.00;100.00;93997.31;5002705;28;20508;-87
2023/10/27 06:18:19;;;;;;;3.97;1.77;;;;;;;18.63;100.00;94008.94;5030074;28;20022;-89
2023/10/27 06:20:45;;;;;;;4.73;1.80;;;;;;;18.52;100.00;94018.00;4992830;28;20056;-87
2023/10/27 06:23:10;;;;;;;5.80;2.17;;;;;;;18.98;100.00;94018.91;4995223;28;20496;-88
2023/10/27 06:25:38;;;;;;;3.37;1.53;;;;;;;18.94;100.00;94012.47;4981835;28;20629;-88
2023/10/27 06:28:04;;;;;;;4.57;1.80;;;;;;;19.37;100.00;94013.00;4980231;28;20025;-88
2023/10/27 06:30:29;;;;;;;4.27;1.90;;;;;;;18.81;100.00;94021.81;4986967;28;20510;-88
2023/10/27 06:32:55;;;;;;;5.17;2.07;;;;;;;19.04;100.00;94023.13;5015966;28;20500;-88
2023/10/27 06:35:20;;;;;;;5.07;2.00;;;;;;;19.49;100.00;94026.88;5018621;28;20021;-87
2023/10/27 06:37:46;;;;;;;4.70;2.10;;;;;;;19.39;100.00;94026.88;5002040;28;20017;-88
2023/10/27 06:40:14;;;;;;;4.77;1.87;;;;;;;19.76;98.80;94031.91;4998862;28;20030;-88
2023/10/27 06:42:39;;;;;;;5.60;2.13;;;;;;;19.77;100.00;94038.03;5016487;28;20030;-87
2023/10/27 06:45:05;;;;;;;4.13;1.87;;;;;;;19.36;100.00;94037.28;4982614;28;20018;-88
2023/10/27 06:48:12;;;;;;;4.30;1.77;;;;;;;19.24;100.00;94034.88;4991043;28;20048;-87
2023/10/27 06:50:37;;;;;;;3.87;1.60;;;;;;;19.61;100.00;94034.56;5021229;28;20056;-88
2023/10/27 06:53:03;;;;;;;3.93;2.03;;;;;;;19.58;100.00;94040.44;5015795;28;20022;-88
2023/10/27 06:55:28;;;;;;;4.90;1.73;;;;;;;19.37;100.00;94042.31;4997267;28;20473;-87
2023/10/27 06:57:54;;;;;;;7.23;2.00;;;;;;;19.87;100.00;94046.00;4998417;28;20476;-88
2023/10/27 07:00:25;;;;;;;5.73;1.70;;;;;;;18.97;100.00;94043.13;5012520;28;20040;-88
2023/10/27 07:03:04;;;;;;;4.30;1.83;;;;;;;18.83;100.00;94040.97;5002511;28;20029;-87
2023/10/27 07:05:29;;;;;;;7.90;2.03;;;;;;;19.11;100.00;94051.38;4995117;28;20038;-87
2023/10/27 07:08:58;;;;;;;4.03;1.77;;;;;;;18.37;100.00;94061.31;5002915;28;20033;-88
2023/10/27 07:12:04;;;;;;;;;;;;;;;;;;;;;
2023/10/27 07:14:39;;;;;;;5.23;2.40;;;;;;;18.42;100.00;94063.22;5004603;28;20042;-88
2023/10/27 07:17:12;;;;;;;7.83;2.40;;;;;;;18.53;100.00;94072.81;4985332;28;20548;-88
2023/10/27 07:19:38;;;;;;;5.60;2.15;;;;;;;18.84;100.00;94079.84;5008311;28;20484;-88
2023/10/27 07:22:06;;;;;;;3.80;1.77;;;;;;;18.18;100.00;94105.41;5011782;28;20026;-89
2023/10/27 07:24:32;;;;;;;3.80;1.40;;;;;;;18.47;100.00;94106.59;5000737;28;20029;-88
2023/10/27 07:27:01;;;;;;;4.90;1.67;;;;;;;18.70;100.00;94094.69;4980111;28;20045;-88
2023/10/27 07:33:22;;;;;;;4.57;1.53;;;;;;;18.43;100.00;94097.53;5003623;28;20512;-88
2023/10/27 07:35:57;;;;;;;2.80;1.30;;;;;;;18.91;100.00;94095.56;4998267;28;20052;-88
2023/10/27 07:38:26;;;;;;;2.27;1.20;;;;;;;18.55;100.00;94098.13;5015179;28;20508;-88
2023/10/27 07:41:04;;;;;;;2.77;1.10;;;;;;;18.43;100.00;94110.84;4989422;28;20116;-88
2023/10/27 07:43:43;;;;;;;1.40;0.80;;;;;;;18.59;100.00;94101.84;5018626;28;20030;-88
2023/10/27 07:46:37;;;;;;;2.33;1.07;;;;;;;18.71;100.00;94108.81;5019779;28;20555;-88
2023/10/27 07:49:06;;;;;;;3.17;1.20;;;;;;;18.68;100.00;94114.66;4998161;28;20127;-88
2023/10/27 07:51:44;;;;;;;2.37;1.00;;;;;;;19.42;100.00;94108.19;5006228;28;20108;-88
2023/10/27 07:54:12;;;;;;;3.80;1.80;;;;;;;19.04;100.00;94110.25;5016695;28;20017;-88
2023/10/27 07:56:40;;;;;;;3.43;1.80;;;;;;;19.18;100.00;94122.00;5013642;28;20037;-88
2023/10/27 07:59:08;;;;;;;2.57;1.33;;;;;;;19.01;100.00;94116.91;4987472;28;20061;-88
2023/10/27 08:01:34;;;;;;;2.20;1.20;;;;;;;18.73;100.00;94125.34;4994813;28;20060;-88
2023/10/27 08:04:05;;;;;;;4.23;1.20;;;;;;;18.90;100.00;94128.59;4997771;28;20029;-89
2023/10/27 08:06:32;;;;;;;2.47;1.70;;;;;;;18.69;100.00;94126.91;5001488;28;20120;-88
2023/10/27 08:09:01;;;;;;;3.50;1.50;;;;;;;18.47;100.00;94138.53;4995862;28;20041;-88
2023/10/27 08:11:27;;;;;;;5.43;1.60;;;;;;;18.63;100.00;94139.41;5000724;28;20036;-89
2023/10/27 08:13:53;;;;;;;5.10;1.50;;;;;;;19.02;100.00;94139.81;5000483;28;20026;-89
2023/10/27 08:16:22;;;;;;;3.23;1.50;;;;;;;18.77;100.00;94145.06;4996307;28;20033;-89
2023/10/27 08:18:47;;;;;;;3.77;1.60;;;;;;;19.29;100.00;94144.13;5007825;28;20032;-88
2023/10/27 08:21:16;;;;;;;2.57;1.60;;;;;;;19.16;100.00;94155.31;5016734;28;20080;-88
2023/10/27 08:23:44;;;;;;;4.93;1.60;;;;;;;19.77;100.00;94150.06;5004801;28;20090;-88
2023/10/27 08:26:10;;;;;;;1.93;1.00;;;;;;;19.42;100.00;94148.16;4996019;28;20092;-88
2023/10/27 08:28:35;;;;;;;2.40;1.80;;;;;;;19.06;100.00;94148.88;4995104;28;20448;-88
2023/10/27 08:31:16;;;;;;;4.70;1.10;;;;;;;19.76;100.00;94149.25;4989404;28;20022;-88
2023/10/27 08:33:44;;;;;;;1.73;0.88;;;;;;;19.63;100.00;94149.78;5001873;28;20105;-89
2023/10/27 08:36:11;;;;;;;4.20;1.40;;;;;;;19.83;100.00;94149.00;5004763;28;20057;-90
2023/10/27 08:38:46;;;;;;;5.50;2.27;;;;;;;19.77;100.00;94155.38;5002721;28;20018;-90
2023/10/27 08:41:13;;;;;;;3.77;1.30;;;;;;;20.11;100.00;94166.28;4979999;28;20022;-89
2023/10/27 08:43:39;;;;;;;3.23;1.70;;;;;;;19.72;100.00;94174.88;5005984;28;20034;-89
2023/10/27 08:46:10;;;;;;;4.13;1.30;;;;;;;19.67;100.00;94171.38;4988776;28;20021;-91
2023/10/27 08:48:36;;;;;;;2.13;1.10;;;;;;;19.80;100.00;94173.53;5002875;28;20037;-89
2023/10/27 08:51:07;;;;;;;1.80;0.90;;;;;;;19.35;100.00;94169.75;4993532;28;20775;-89
2023/10/27 08:53:51;;;;;;;2.30;1.13;;;;;;;19.85;100.00;94172.72;5002864;28;20076;-89
2023/10/27 08:56:17;;;;;;;3.07;1.57;;;;;;;20.56;100.00;94177.19;4996020;28;20472;-89
2023/10/27 08:58:53;;;;;;;1.80;0.70;;;;;;;19.97;100.00;94171.38;4996442;28;20030;-90
2023/10/27 09:01:19;;;;;;;1.73;0.80;;;;;;;19.56;100.00;94181.22;4998122;28;20076;-88
2023/10/27 09:04:08;;;;;;;0.67;0.50;;;;;;;19.22;100.00;94167.59;5015710;28;20057;-87
2023/10/27 09:06:35;;;;;;;1.27;0.40;;;;;;;19.13;100.00;94182.47;5029879;28;20034;-87
2023/10/27 09:09:01;;;;;;;1.53;0.50;;;;;;;19.20;100.00;94178.50;5003945;28;20030;-88
2023/10/27 09:11:27;;;;;;;2.77;0.80;;;;;;;18.86;100.00;94183.47;4993928;28;20054;-88
2023/10/27 09:13:53;;;;;;;1.73;0.60;;;;;;;18.95;100.00;94184.56;4974302;28;20022;-88
2023/10/27 09:16:25;;;;;;;1.20;0.60;;;;;;;19.45;100.00;94180.41;4993222;28;20029;-88
2023/10/27 09:18:51;;;;;;;1.13;0.65;;;;;;;19.53;100.00;94179.88;5021817;28;20030;-88
2023/10/27 09:21:37;;;;;;;1.13;0.60;;;;;;;20.07;100.00;94186.56;5017325;28;20148;-88
2023/10/27 09:24:03;;;;;;;2.00;0.73;;;;;;;19.37;100.00;94188.13;5001554;28;20034;-88
2023/10/27 09:26:36;;;;;;;0.73;0.40;;;;;;;19.40;100.00;94199.06;5000100;28;20282;-88
2023/10/27 09:29:03;;;;;;;0.95;0.50;;;;;;;19.08;100.00;94189.41;5003563;28;20480;-88
2023/10/27 09:31:33;;;;;;;0.77;0.60;;;;;;;19.63;100.00;94186.28;5000599;28;20034;-88
2023/10/27 09:34:23;;;;;;;0.50;0.43;;;;;;;20.19;100.00;94197.78;5017575;28;20030;-88
2023/10/27 09:37:09;;;;;;;2.07;0.60;;;;;;;20.35;100.00;94198.53;5016323;28;20037;-88
2023/10/27 09:39:47;;;;;;;1.87;0.67;;;;;;;19.64;100.00;94195.91;5010661;28;20053;-87
2023/10/27 09:42:13;;;;;;;2.67;1.23;;;;;;;19.83;100.00;94199.66;5018699;28;20049;-86
2023/10/27 09:45:07;;;;;;;2.85;1.10;;;;;;;19.72;100.00;94201.53;4992155;28;20026;-87
2023/10/27 09:47:41;;;;;;;2.90;1.43;;;;;;;19.52;100.00;94204.16;4995984;28;20030;-87
2023/10/27 09:50:11;;;;;;;0.83;0.50;;;;;;;19.30;100.00;94209.69;5001665;28;20037;-88
2023/10/27 09:52:41;;;;;;;2.10;0.80;;;;;;;19.63;100.00;94211.13;4990269;28;20022;-87
2023/10/27 09:55:07;;;;;;;3.43;0.60;;;;;;;19.30;100.00;94220.34;5016655;28;20500;-87
2023/10/27 09:57:38;;;;;;;1.63;0.70;;;;;;;19.58;100.00;94226.28;4996814;28;20604;-87
2023/10/27 10:00:31;;;;;;;2.00;1.13;;;;;;;19.40;100.00;94231.03;4998265;28;20472;-87
2023/10/27 10:03:03;;;;;;;5.13;1.40;;;;;;;19.50;100.00;94240.94;5015306;28;20030;-87
2023/10/27 10:06:07;;;;;;;2.97;1.23;;;;;;;19.47;100.00;94236.91;5003783;28;20073;-87
2023/10/27 10:08:33;;;;;;;1.45;0.60;;;;;;;19.48;100.00;94243.03;5028627;28;20029;-87
2023/10/27 10:11:19;;;;;;;4.00;1.90;;;;;;;20.22;100.00;94237.28;5014277;28;20565;-87
2023/10/27 10:13:46;;;;;;;6.73;3.23;;;;;;;20.42;100.00;94247.16;5011145;28;20476;-88
2023/10/27 10:16:19;;;;;;;5.10;2.53;;;;;;;19.90;100.00;94247.41;5008076;28;20017;-88
2023/10/27 10:18:53;;;;;;;2.10;0.70;;;;;;;20.43;100.00;94248.72;4998646;28;20013;-88
2023/10/27 10:21:39;;;;;;;1.60;0.67;;;;;;;19.48;100.00;94254.53;5018268;28;20018;-88
2023/10/27 10:24:08;;;;;;;1.20;0.80;;;;;;;19.75;100.00;94254.34;4995437;28;20018;-88
2023/10/27 10:30:21;;;;;;;1.43;0.70;;;;;;;19.76;100.00;94249.81;5009594;28;20026;-89
2023/10/27 10:33:30;;;;;;;4.40;1.00;;;;;;;19.85;100.00;94256.22;4987878;28;20538;-88
2023/10/27 10:36:22;;;;;;;1.52;0.75;;;;;;;19.08;100.00;94264.00;5018966;28;20029;-88
2023/10/27 10:38:50;;;;;;;2.23;1.03;;;;;;;19.63;100.00;94260.94;5025290;28;20098;-88
2023/10/27 10:41:18;;;;;;;2.80;0.70;;;;;;;19.48;100.00;94265.19;5014688;28;20113;-87
2023/10/27 10:44:28;;;;;;;0.50;0.40;;;;;;;18.94;100.00;94265.50;4997189;28;20018;-88
2023/10/27 10:47:00;;;;;;;1.10;0.53;;;;;;;19.37;100.00;94258.22;5007608;28;20026;-88
2023/10/27 10:49:28;;;;;;;1.47;0.57;;;;;;;19.56;100.00;94258.53;4993766;28;20038;-87
2023/10/27 10:51:57;;;;;;;3.27;1.13;;;;;;;20.29;100.00;94250.34;4989021;28;20041;-88
2023/10/27 10:54:31;;;;;;;2.90;1.37;;;;;;;20.15;100.00;94246.59;4993273;28;20386;-88
2023/10/27 10:57:19;;;;;;;1.93;0.93;;;;;;;19.99;100.00;94248.50;4991184;28;20417;-87
2023/10/27 10:59:55;;;;;;;1.27;0.70;;;;;;;20.25;100.00;94254.59;5001465;28;20060;-87
2023/10/27 11:02:21;;;;;;;3.50;0.87;;;;;;;19.32;100.00;94268.88;4999332;28;20022;-88
2023/10/27 11:04:47;;;;;;;0.60;0.30;;;;;;;19.35;100.00;94270.19;5013746;28;20554;-88
2023/10/27 11:07:16;;;;;;;1.67;0.50;;;;;;;19.13;100.00;94273.06;4991054;28;20037;-88
2023/10/27 11:09:42;;;;;;;1.37;0.43;;;;;;;19.34;100.00;94265.94;4977998;28;20052;-88
2023/10/27 11:12:23;;;;;;;1.70;0.47;;;;;;;19.48;100.00;94264.38;5010658;28;20025;-89
2023/10/27 11:15:43;;;;;;;3.33;0.80;;;;;;;19.58;100.00;94268.94;4999090;28;20021;-91
2023/10/27 11:18:18;;;;;;;2.35;0.70;;;;;;;19.50;100.00;94267.59;5015991;28;20030;-92
2023/10/27 11:20:55;;;;;;;1.53;0.70;;;;;;;19.20;100.00;94269.09;4993450;28;20105;-90
2023/10/27 11:23:26;;;;;;;2.20;0.80;;;;;;;18.91;100.00;94273.22;4995421;28;20112;-89
2023/10/27 11:26:01;;;;;;;3.47;1.30;;;;;;;20.39;100.00;94265.56;5007481;28;20366;-89
2023/10/27 11:28:42;;;;;;;5.27;1.50;;;;;;;19.82;100.00;94264.75;5000772;28;20037;-89
2023/10/27 11:31:23;;;;;;;3.10;1.27;;;;;;;20.09;100.00;94269.84;5030292;28;20604;-89
2023/10/27 11:34:04;;;;;;;3.63;1.00;;;;;;;19.99;100.00;94269.84;5005828;28;20040;-89
2023/10/27 11:36:39;;;;;;;6.03;1.10;;;;;;;21.68;100.00;94262.22;5008490;28;20381;-90
2023/10/27 11:39:18;;;;;;;3.57;0.70;;;;;;;21.45;100.00;94265.56;5001748;28;20029;-90
2023/10/27 11:42:03;;;;;;;3.97;1.00;;;;;;;21.46;100.00;94264.47;5003126;28;20151;-89
2023/10/27 11:44:37;;;;;;;4.33;1.27;;;;;;;22.06;100.00;94257.94;4991393;28;20045;-89
2023/10/27 11:47:06;;;;;;;5.03;1.40;;;;;;;22.02;100.00;94258.78;4997507;28;20104;-89